sensor_id;sensor_type;location;lat;lon;timestamp;P1;durP1;ratioP1;P2;durP2;ratioP2
11614;SDS011;5863;52.832;4.758;2023-06-22T00:00:59;5.43;;;4.63;;
11614;SDS011;5863;52.832;4.758;2023-06-22T00:03:26;4.70;;;4.30;;
11614;SDS011;5863;52.832;4.758;2023-06-22T00:05:52;6.53;;;5.90;;
11614;SDS011;5863;52.832;4.758;2023-06-22T00:08:19;7.50;;;6.78;;
11614;SDS011;5863;52.832;4.758;2023-06-22T00:10:47;7.30;;;6.60;;
11614;SDS011;5863;52.832;4.758;2023-06-22T00:13:14;7.55;;;6.72;;
11614;SDS011;5863;52.832;4.758;2023-06-22T00:15:42;7.15;;;6.15;;
11614;SDS011;5863;52.832;4.758;2023-06-22T00:18:09;11.55;;;8.27;;
11614;SDS011;5863;52.832;4.758;2023-06-22T00:20:37;11.98;;;7.88;;
11614;SDS011;5863;52.832;4.758;2023-06-22T00:23:05;11.23;;;8.13;;
11614;SDS011;5863;52.832;4.758;2023-06-22T00:25:33;13.05;;;10.32;;
11614;SDS011;5863;52.832;4.758;2023-06-22T00:28:02;13.75;;;10.60;;
11614;SDS011;5863;52.832;4.758;2023-06-22T00:30:30;11.57;;;10.15;;
11614;SDS011;5863;52.832;4.758;2023-06-22T00:32:57;16.13;;;11.35;;
11614;SDS011;5863;52.832;4.758;2023-06-22T00:35:24;16.98;;;11.73;;
11614;SDS011;5863;52.832;4.758;2023-06-22T00:37:53;17.85;;;12.48;;
11614;SDS011;5863;52.832;4.758;2023-06-22T00:40:25;18.00;;;12.32;;
11614;SDS011;5863;52.832;4.758;2023-06-22T00:42:52;17.08;;;10.70;;
11614;SDS011;5863;52.832;4.758;2023-06-22T00:45:24;13.93;;;10.23;;
11614;SDS011;5863;52.832;4.758;2023-06-22T00:47:51;12.00;;;9.95;;
11614;SDS011;5863;52.832;4.758;2023-06-22T00:50:19;11.25;;;9.30;;
11614;SDS011;5863;52.832;4.758;2023-06-22T00:52:48;11.90;;;8.38;;
11614;SDS011;5863;52.832;4.758;2023-06-22T00:55:17;9.57;;;8.25;;
11614;SDS011;5863;52.832;4.758;2023-06-22T00:57:44;8.27;;;7.45;;
11614;SDS011;5863;52.832;4.758;2023-06-22T01:00:12;10.25;;;8.27;;
11614;SDS011;5863;52.832;4.758;2023-06-22T01:02:43;9.50;;;8.07;;
11614;SDS011;5863;52.832;4.758;2023-06-22T01:05:11;8.95;;;8.05;;
11614;SDS011;5863;52.832;4.758;2023-06-22T01:07:39;9.18;;;8.10;;
11614;SDS011;5863;52.832;4.758;2023-06-22T01:10:14;11.18;;;8.45;;
11614;SDS011;5863;52.832;4.758;2023-06-22T01:12:48;12.20;;;9.85;;
11614;SDS011;5863;52.832;4.758;2023-06-22T01:15:20;11.23;;;9.27;;
11614;SDS011;5863;52.832;4.758;2023-06-22T01:17:52;10.30;;;9.20;;
11614;SDS011;5863;52.832;4.758;2023-06-22T01:20:20;12.18;;;9.68;;
11614;SDS011;5863;52.832;4.758;2023-06-22T01:23:01;11.32;;;9.80;;
11614;SDS011;5863;52.832;4.758;2023-06-22T01:25:33;10.70;;;9.27;;
11614;SDS011;5863;52.832;4.758;2023-06-22T01:28:10;10.68;;;9.07;;
11614;SDS011;5863;52.832;4.758;2023-06-22T01:30:50;12.20;;;9.70;;
11614;SDS011;5863;52.832;4.758;2023-06-22T01:33:25;10.18;;;8.68;;
11614;SDS011;5863;52.832;4.758;2023-06-22T01:35:53;10.63;;;9.02;;
11614;SDS011;5863;52.832;4.758;2023-06-22T01:38:19;11.45;;;10.25;;
11614;SDS011;5863;52.832;4.758;2023-06-22T01:40:47;10.30;;;9.25;;
11614;SDS011;5863;52.832;4.758;2023-06-22T01:43:15;10.48;;;8.98;;
11614;SDS011;5863;52.832;4.758;2023-06-22T01:45:42;9.63;;;8.65;;
11614;SDS011;5863;52.832;4.758;2023-06-22T01:48:10;10.25;;;9.15;;
11614;SDS011;5863;52.832;4.758;2023-06-22T01:50:38;10.90;;;8.82;;
11614;SDS011;5863;52.832;4.758;2023-06-22T01:53:04;9.10;;;8.20;;
11614;SDS011;5863;52.832;4.758;2023-06-22T01:55:31;9.73;;;8.40;;
11614;SDS011;5863;52.832;4.758;2023-06-22T01:57:58;7.97;;;7.18;;
11614;SDS011;5863;52.832;4.758;2023-06-22T02:00:25;7.95;;;7.25;;
11614;SDS011;5863;52.832;4.758;2023-06-22T02:02:56;8.43;;;7.63;;
11614;SDS011;5863;52.832;4.758;2023-06-22T02:05:31;12.00;;;8.82;;
11614;SDS011;5863;52.832;4.758;2023-06-22T02:08:07;9.65;;;8.40;;
11614;SDS011;5863;52.832;4.758;2023-06-22T02:10:36;9.43;;;8.48;;
11614;SDS011;5863;52.832;4.758;2023-06-22T02:13:06;11.07;;;9.52;;
11614;SDS011;5863;52.832;4.758;2023-06-22T02:15:34;11.07;;;9.98;;
11614;SDS011;5863;52.832;4.758;2023-06-22T02:18:02;12.02;;;10.57;;
11614;SDS011;5863;52.832;4.758;2023-06-22T02:20:31;11.80;;;10.55;;
11614;SDS011;5863;52.832;4.758;2023-06-22T02:22:58;11.10;;;9.70;;
11614;SDS011;5863;52.832;4.758;2023-06-22T02:25:24;11.73;;;10.43;;
11614;SDS011;5863;52.832;4.758;2023-06-22T02:27:52;11.57;;;10.35;;
11614;SDS011;5863;52.832;4.758;2023-06-22T02:30:19;12.30;;;11.02;;
11614;SDS011;5863;52.832;4.758;2023-06-22T02:32:46;11.90;;;10.65;;
11614;SDS011;5863;52.832;4.758;2023-06-22T02:35:12;11.02;;;9.88;;
11614;SDS011;5863;52.832;4.758;2023-06-22T02:37:40;10.15;;;9.15;;
11614;SDS011;5863;52.832;4.758;2023-06-22T02:40:07;11.88;;;10.07;;
11614;SDS011;5863;52.832;4.758;2023-06-22T02:42:35;15.50;;;11.75;;
11614;SDS011;5863;52.832;4.758;2023-06-22T02:45:02;17.23;;;13.57;;
11614;SDS011;5863;52.832;4.758;2023-06-22T02:47:29;18.15;;;12.90;;
11614;SDS011;5863;52.832;4.758;2023-06-22T02:49:55;19.55;;;15.75;;
11614;SDS011;5863;52.832;4.758;2023-06-22T02:52:22;22.00;;;16.63;;
11614;SDS011;5863;52.832;4.758;2023-06-22T02:54:50;16.73;;;13.90;;
11614;SDS011;5863;52.832;4.758;2023-06-22T02:57:18;17.85;;;13.27;;
11614;SDS011;5863;52.832;4.758;2023-06-22T02:59:45;26.13;;;18.92;;
11614;SDS011;5863;52.832;4.758;2023-06-22T03:02:12;30.45;;;24.42;;
11614;SDS011;5863;52.832;4.758;2023-06-22T03:04:38;29.83;;;23.95;;
11614;SDS011;5863;52.832;4.758;2023-06-22T03:07:05;30.30;;;23.45;;
11614;SDS011;5863;52.832;4.758;2023-06-22T03:09:32;27.88;;;22.65;;
11614;SDS011;5863;52.832;4.758;2023-06-22T03:12:00;26.08;;;20.88;;
11614;SDS011;5863;52.832;4.758;2023-06-22T03:14:27;24.85;;;19.77;;
11614;SDS011;5863;52.832;4.758;2023-06-22T03:16:53;24.17;;;20.35;;
11614;SDS011;5863;52.832;4.758;2023-06-22T03:19:26;23.38;;;19.35;;
11614;SDS011;5863;52.832;4.758;2023-06-22T03:21:54;26.55;;;21.38;;
11614;SDS011;5863;52.832;4.758;2023-06-22T03:24:21;26.40;;;20.75;;
11614;SDS011;5863;52.832;4.758;2023-06-22T03:26:47;30.92;;;24.00;;
11614;SDS011;5863;52.832;4.758;2023-06-22T03:29:15;28.92;;;23.20;;
11614;SDS011;5863;52.832;4.758;2023-06-22T03:31:42;31.38;;;25.48;;
11614;SDS011;5863;52.832;4.758;2023-06-22T03:34:09;37.47;;;26.90;;
11614;SDS011;5863;52.832;4.758;2023-06-22T03:36:35;28.20;;;23.73;;
11614;SDS011;5863;52.832;4.758;2023-06-22T03:39:02;27.20;;;22.70;;
11614;SDS011;5863;52.832;4.758;2023-06-22T03:41:29;34.10;;;27.63;;
11614;SDS011;5863;52.832;4.758;2023-06-22T03:43:55;42.22;;;31.30;;
11614;SDS011;5863;52.832;4.758;2023-06-22T03:46:23;41.90;;;30.63;;
11614;SDS011;5863;52.832;4.758;2023-06-22T03:48:50;43.22;;;32.78;;
11614;SDS011;5863;52.832;4.758;2023-06-22T03:51:17;41.53;;;32.70;;
11614;SDS011;5863;52.832;4.758;2023-06-22T03:53:44;48.35;;;38.00;;
11614;SDS011;5863;52.832;4.758;2023-06-22T03:56:10;47.92;;;37.13;;
11614;SDS011;5863;52.832;4.758;2023-06-22T03:58:37;52.67;;;37.85;;
11614;SDS011;5863;52.832;4.758;2023-06-22T04:01:07;51.22;;;39.15;;
11614;SDS011;5863;52.832;4.758;2023-06-22T04:03:37;56.33;;;40.20;;
11614;SDS011;5863;52.832;4.758;2023-06-22T04:06:04;51.80;;;39.35;;
11614;SDS011;5863;52.832;4.758;2023-06-22T04:08:31;56.22;;;40.55;;
11614;SDS011;5863;52.832;4.758;2023-06-22T04:10:58;52.67;;;40.10;;
11614;SDS011;5863;52.832;4.758;2023-06-22T04:13:24;51.45;;;39.58;;
11614;SDS011;5863;52.832;4.758;2023-06-22T04:15:51;50.80;;;38.33;;
11614;SDS011;5863;52.832;4.758;2023-06-22T04:18:18;50.13;;;37.95;;
11614;SDS011;5863;52.832;4.758;2023-06-22T04:20:46;51.10;;;36.08;;
11614;SDS011;5863;52.832;4.758;2023-06-22T04:23:12;47.10;;;34.75;;
11614;SDS011;5863;52.832;4.758;2023-06-22T04:25:39;44.90;;;33.38;;
11614;SDS011;5863;52.832;4.758;2023-06-22T04:28:06;47.70;;;33.53;;
11614;SDS011;5863;52.832;4.758;2023-06-22T04:30:37;41.05;;;30.17;;
11614;SDS011;5863;52.832;4.758;2023-06-22T04:33:11;44.22;;;30.83;;
11614;SDS011;5863;52.832;4.758;2023-06-22T04:35:38;42.25;;;30.50;;
11614;SDS011;5863;52.832;4.758;2023-06-22T04:38:07;40.22;;;28.80;;
11614;SDS011;5863;52.832;4.758;2023-06-22T04:40:34;35.10;;;27.70;;
11614;SDS011;5863;52.832;4.758;2023-06-22T04:43:01;37.45;;;27.52;;
11614;SDS011;5863;52.832;4.758;2023-06-22T04:45:28;36.00;;;26.13;;
11614;SDS011;5863;52.832;4.758;2023-06-22T04:47:55;35.13;;;25.98;;
11614;SDS011;5863;52.832;4.758;2023-06-22T04:50:22;34.05;;;25.75;;
11614;SDS011;5863;52.832;4.758;2023-06-22T04:52:49;34.40;;;26.05;;
11614;SDS011;5863;52.832;4.758;2023-06-22T04:55:18;35.38;;;24.20;;
11614;SDS011;5863;52.832;4.758;2023-06-22T04:57:46;30.77;;;22.60;;
11614;SDS011;5863;52.832;4.758;2023-06-22T05:00:14;28.10;;;21.65;;
11614;SDS011;5863;52.832;4.758;2023-06-22T05:02:42;27.60;;;20.83;;
11614;SDS011;5863;52.832;4.758;2023-06-22T05:05:09;25.70;;;20.17;;
11614;SDS011;5863;52.832;4.758;2023-06-22T05:07:38;25.67;;;19.35;;
11614;SDS011;5863;52.832;4.758;2023-06-22T05:10:08;24.38;;;18.95;;
11614;SDS011;5863;52.832;4.758;2023-06-22T05:12:36;24.65;;;18.77;;
11614;SDS011;5863;52.832;4.758;2023-06-22T05:15:03;23.40;;;18.00;;
11614;SDS011;5863;52.832;4.758;2023-06-22T05:17:31;24.23;;;18.67;;
11614;SDS011;5863;52.832;4.758;2023-06-22T05:19:57;21.92;;;17.65;;
11614;SDS011;5863;52.832;4.758;2023-06-22T05:22:26;20.83;;;17.67;;
11614;SDS011;5863;52.832;4.758;2023-06-22T05:24:53;23.38;;;17.75;;
11614;SDS011;5863;52.832;4.758;2023-06-22T05:27:19;22.63;;;17.85;;
11614;SDS011;5863;52.832;4.758;2023-06-22T05:29:47;18.58;;;16.05;;
11614;SDS011;5863;52.832;4.758;2023-06-22T05:32:14;20.65;;;16.00;;
11614;SDS011;5863;52.832;4.758;2023-06-22T05:34:41;18.45;;;15.65;;
11614;SDS011;5863;52.832;4.758;2023-06-22T05:37:09;20.80;;;16.27;;
11614;SDS011;5863;52.832;4.758;2023-06-22T05:39:35;19.15;;;14.43;;
11614;SDS011;5863;52.832;4.758;2023-06-22T05:42:04;17.58;;;14.93;;
11614;SDS011;5863;52.832;4.758;2023-06-22T05:44:31;18.10;;;13.95;;
11614;SDS011;5863;52.832;4.758;2023-06-22T05:47:00;16.42;;;13.57;;
11614;SDS011;5863;52.832;4.758;2023-06-22T05:49:27;18.65;;;13.85;;
11614;SDS011;5863;52.832;4.758;2023-06-22T05:51:54;16.63;;;12.88;;
11614;SDS011;5863;52.832;4.758;2023-06-22T05:54:22;16.85;;;13.27;;
11614;SDS011;5863;52.832;4.758;2023-06-22T05:56:48;17.60;;;13.60;;
11614;SDS011;5863;52.832;4.758;2023-06-22T05:59:15;18.35;;;13.20;;
11614;SDS011;5863;52.832;4.758;2023-06-22T06:01:42;20.38;;;14.25;;
11614;SDS011;5863;52.832;4.758;2023-06-22T06:04:10;17.48;;;14.65;;
11614;SDS011;5863;52.832;4.758;2023-06-22T06:06:37;18.50;;;14.30;;
11614;SDS011;5863;52.832;4.758;2023-06-22T06:09:04;18.02;;;14.70;;
11614;SDS011;5863;52.832;4.758;2023-06-22T06:11:30;14.23;;;12.40;;
11614;SDS011;5863;52.832;4.758;2023-06-22T06:13:57;17.35;;;14.27;;
11614;SDS011;5863;52.832;4.758;2023-06-22T06:16:24;19.95;;;14.98;;
11614;SDS011;5863;52.832;4.758;2023-06-22T06:18:50;18.13;;;14.38;;
11614;SDS011;5863;52.832;4.758;2023-06-22T06:21:21;17.63;;;14.68;;
11614;SDS011;5863;52.832;4.758;2023-06-22T06:23:48;18.67;;;14.40;;
11614;SDS011;5863;52.832;4.758;2023-06-22T06:26:14;17.90;;;15.88;;
11614;SDS011;5863;52.832;4.758;2023-06-22T06:28:42;19.00;;;15.65;;
11614;SDS011;5863;52.832;4.758;2023-06-22T06:31:09;18.52;;;15.80;;
11614;SDS011;5863;52.832;4.758;2023-06-22T06:33:37;18.30;;;14.93;;
11614;SDS011;5863;52.832;4.758;2023-06-22T06:36:03;17.67;;;15.80;;
11614;SDS011;5863;52.832;4.758;2023-06-22T06:38:32;18.50;;;15.57;;
11614;SDS011;5863;52.832;4.758;2023-06-22T06:40:58;16.13;;;14.43;;
11614;SDS011;5863;52.832;4.758;2023-06-22T06:43:25;20.58;;;16.95;;
11614;SDS011;5863;52.832;4.758;2023-06-22T06:45:52;16.88;;;15.07;;
11614;SDS011;5863;52.832;4.758;2023-06-22T06:48:18;18.92;;;15.55;;
11614;SDS011;5863;52.832;4.758;2023-06-22T06:50:45;17.92;;;14.98;;
11614;SDS011;5863;52.832;4.758;2023-06-22T06:53:12;19.15;;;15.50;;
11614;SDS011;5863;52.832;4.758;2023-06-22T06:55:40;21.60;;;15.20;;
11614;SDS011;5863;52.832;4.758;2023-06-22T06:58:07;18.58;;;15.90;;
11614;SDS011;5863;52.832;4.758;2023-06-22T07:00:34;16.55;;;14.85;;
11614;SDS011;5863;52.832;4.758;2023-06-22T07:03:01;16.92;;;14.70;;
11614;SDS011;5863;52.832;4.758;2023-06-22T07:05:29;18.35;;;14.13;;
11614;SDS011;5863;52.832;4.758;2023-06-22T07:07:56;16.35;;;14.13;;
11614;SDS011;5863;52.832;4.758;2023-06-22T07:10:23;15.60;;;13.98;;
11614;SDS011;5863;52.832;4.758;2023-06-22T07:12:51;15.65;;;12.70;;
11614;SDS011;5863;52.832;4.758;2023-06-22T07:15:17;15.73;;;12.45;;
11614;SDS011;5863;52.832;4.758;2023-06-22T07:17:44;14.77;;;12.32;;
11614;SDS011;5863;52.832;4.758;2023-06-22T07:20:11;13.10;;;11.80;;
11614;SDS011;5863;52.832;4.758;2023-06-22T07:22:38;13.60;;;11.35;;
11614;SDS011;5863;52.832;4.758;2023-06-22T07:25:06;12.32;;;10.13;;
11614;SDS011;5863;52.832;4.758;2023-06-22T07:27:35;14.55;;;12.65;;
11614;SDS011;5863;52.832;4.758;2023-06-22T07:30:05;15.68;;;12.25;;
11614;SDS011;5863;52.832;4.758;2023-06-22T07:32:33;13.77;;;12.15;;
11614;SDS011;5863;52.832;4.758;2023-06-22T07:34:59;16.38;;;13.20;;
11614;SDS011;5863;52.832;4.758;2023-06-22T07:37:27;15.68;;;12.88;;
11614;SDS011;5863;52.832;4.758;2023-06-22T07:39:54;15.57;;;11.93;;
11614;SDS011;5863;52.832;4.758;2023-06-22T07:42:23;13.90;;;12.23;;
11614;SDS011;5863;52.832;4.758;2023-06-22T07:44:50;14.90;;;12.15;;
11614;SDS011;5863;52.832;4.758;2023-06-22T07:47:18;17.50;;;12.50;;
11614;SDS011;5863;52.832;4.758;2023-06-22T07:49:45;13.27;;;11.30;;
11614;SDS011;5863;52.832;4.758;2023-06-22T07:52:12;14.45;;;12.05;;
11614;SDS011;5863;52.832;4.758;2023-06-22T07:54:38;13.48;;;11.05;;
11614;SDS011;5863;52.832;4.758;2023-06-22T07:57:05;13.80;;;10.50;;
11614;SDS011;5863;52.832;4.758;2023-06-22T07:59:35;12.57;;;10.65;;
11614;SDS011;5863;52.832;4.758;2023-06-22T08:02:02;16.67;;;11.63;;
11614;SDS011;5863;52.832;4.758;2023-06-22T08:04:30;16.05;;;11.70;;
11614;SDS011;5863;52.832;4.758;2023-06-22T08:06:59;13.50;;;10.77;;
11614;SDS011;5863;52.832;4.758;2023-06-22T08:09:27;12.73;;;11.43;;
11614;SDS011;5863;52.832;4.758;2023-06-22T08:11:54;15.77;;;11.90;;
11614;SDS011;5863;52.832;4.758;2023-06-22T08:14:21;14.90;;;11.73;;
11614;SDS011;5863;52.832;4.758;2023-06-22T08:16:48;17.02;;;12.73;;
11614;SDS011;5863;52.832;4.758;2023-06-22T08:19:15;14.88;;;12.15;;
11614;SDS011;5863;52.832;4.758;2023-06-22T08:21:43;13.38;;;11.75;;
11614;SDS011;5863;52.832;4.758;2023-06-22T08:24:10;14.18;;;11.98;;
11614;SDS011;5863;52.832;4.758;2023-06-22T08:26:36;15.15;;;12.55;;
11614;SDS011;5863;52.832;4.758;2023-06-22T08:29:03;15.23;;;11.70;;
11614;SDS011;5863;52.832;4.758;2023-06-22T08:31:30;16.75;;;11.25;;
11614;SDS011;5863;52.832;4.758;2023-06-22T08:33:58;12.75;;;11.30;;
11614;SDS011;5863;52.832;4.758;2023-06-22T08:36:25;14.20;;;11.32;;
11614;SDS011;5863;52.832;4.758;2023-06-22T08:38:56;12.85;;;11.10;;
11614;SDS011;5863;52.832;4.758;2023-06-22T08:41:26;13.30;;;9.80;;
11614;SDS011;5863;52.832;4.758;2023-06-22T08:43:53;13.18;;;10.50;;
11614;SDS011;5863;52.832;4.758;2023-06-22T08:46:19;11.55;;;9.55;;
11614;SDS011;5863;52.832;4.758;2023-06-22T08:48:48;13.32;;;10.00;;
11614;SDS011;5863;52.832;4.758;2023-06-22T08:51:15;11.70;;;10.13;;
11614;SDS011;5863;52.832;4.758;2023-06-22T08:53:42;13.48;;;10.43;;
11614;SDS011;5863;52.832;4.758;2023-06-22T08:56:11;12.57;;;9.20;;
11614;SDS011;5863;52.832;4.758;2023-06-22T08:58:38;13.07;;;10.20;;
11614;SDS011;5863;52.832;4.758;2023-06-22T09:01:04;13.75;;;10.98;;
11614;SDS011;5863;52.832;4.758;2023-06-22T09:03:31;13.82;;;11.00;;
11614;SDS011;5863;52.832;4.758;2023-06-22T09:06:01;13.90;;;10.23;;
11614;SDS011;5863;52.832;4.758;2023-06-22T09:08:28;13.13;;;9.52;;
11614;SDS011;5863;52.832;4.758;2023-06-22T09:10:55;12.68;;;9.93;;
11614;SDS011;5863;52.832;4.758;2023-06-22T09:13:23;12.45;;;11.02;;
11614;SDS011;5863;52.832;4.758;2023-06-22T09:15:50;11.48;;;9.07;;
11614;SDS011;5863;52.832;4.758;2023-06-22T09:18:17;9.65;;;8.13;;
11614;SDS011;5863;52.832;4.758;2023-06-22T09:20:44;10.63;;;8.73;;
11614;SDS011;5863;52.832;4.758;2023-06-22T09:23:11;10.52;;;9.05;;
11614;SDS011;5863;52.832;4.758;2023-06-22T09:25:38;12.15;;;9.30;;
11614;SDS011;5863;52.832;4.758;2023-06-22T09:28:05;12.38;;;8.85;;
11614;SDS011;5863;52.832;4.758;2023-06-22T09:30:33;12.90;;;9.45;;
11614;SDS011;5863;52.832;4.758;2023-06-22T09:33:00;14.60;;;9.38;;
11614;SDS011;5863;52.832;4.758;2023-06-22T09:35:27;10.50;;;8.23;;
11614;SDS011;5863;52.832;4.758;2023-06-22T09:37:53;12.00;;;9.35;;
11614;SDS011;5863;52.832;4.758;2023-06-22T09:40:20;12.00;;;9.45;;
11614;SDS011;5863;52.832;4.758;2023-06-22T09:42:47;13.10;;;8.77;;
11614;SDS011;5863;52.832;4.758;2023-06-22T09:45:13;8.50;;;7.60;;
11614;SDS011;5863;52.832;4.758;2023-06-22T09:47:42;12.18;;;8.77;;
11614;SDS011;5863;52.832;4.758;2023-06-22T09:50:09;13.55;;;9.70;;
11614;SDS011;5863;52.832;4.758;2023-06-22T09:52:36;11.70;;;8.25;;
11614;SDS011;5863;52.832;4.758;2023-06-22T09:55:03;8.93;;;7.97;;
11614;SDS011;5863;52.832;4.758;2023-06-22T09:57:30;8.05;;;6.95;;
11614;SDS011;5863;52.832;4.758;2023-06-22T09:59:56;8.88;;;6.47;;
11614;SDS011;5863;52.832;4.758;2023-06-22T10:02:23;12.63;;;9.30;;
11614;SDS011;5863;52.832;4.758;2023-06-22T10:04:51;15.25;;;10.13;;
11614;SDS011;5863;52.832;4.758;2023-06-22T10:07:18;10.05;;;8.52;;
11614;SDS011;5863;52.832;4.758;2023-06-22T10:09:44;8.93;;;7.05;;
11614;SDS011;5863;52.832;4.758;2023-06-22T10:12:11;13.10;;;10.18;;
11614;SDS011;5863;52.832;4.758;2023-06-22T10:14:38;15.40;;;12.25;;
11614;SDS011;5863;52.832;4.758;2023-06-22T10:17:05;13.68;;;10.38;;
11614;SDS011;5863;52.832;4.758;2023-06-22T10:19:32;12.68;;;10.95;;
11614;SDS011;5863;52.832;4.758;2023-06-22T10:22:03;13.35;;;12.00;;
11614;SDS011;5863;52.832;4.758;2023-06-22T10:24:30;15.30;;;11.20;;
11614;SDS011;5863;52.832;4.758;2023-06-22T10:26:57;12.57;;;11.23;;
11614;SDS011;5863;52.832;4.758;2023-06-22T10:29:24;12.23;;;10.55;;
11614;SDS011;5863;52.832;4.758;2023-06-22T10:31:50;11.50;;;9.45;;
11614;SDS011;5863;52.832;4.758;2023-06-22T10:34:17;10.48;;;8.00;;
11614;SDS011;5863;52.832;4.758;2023-06-22T10:36:44;10.75;;;9.65;;
11614;SDS011;5863;52.832;4.758;2023-06-22T10:39:14;13.15;;;10.15;;
11614;SDS011;5863;52.832;4.758;2023-06-22T10:41:41;10.85;;;9.73;;
11614;SDS011;5863;52.832;4.758;2023-06-22T10:44:08;16.05;;;12.07;;
11614;SDS011;5863;52.832;4.758;2023-06-22T10:46:34;16.67;;;11.40;;
11614;SDS011;5863;52.832;4.758;2023-06-22T10:49:01;15.82;;;11.50;;
11614;SDS011;5863;52.832;4.758;2023-06-22T10:51:28;13.85;;;12.20;;
11614;SDS011;5863;52.832;4.758;2023-06-22T10:53:59;13.77;;;10.95;;
11614;SDS011;5863;52.832;4.758;2023-06-22T10:56:27;13.93;;;11.25;;
11614;SDS011;5863;52.832;4.758;2023-06-22T10:58:53;17.65;;;12.18;;
11614;SDS011;5863;52.832;4.758;2023-06-22T11:01:21;14.15;;;11.52;;
11614;SDS011;5863;52.832;4.758;2023-06-22T11:03:48;13.80;;;11.35;;
11614;SDS011;5863;52.832;4.758;2023-06-22T11:06:21;14.98;;;12.25;;
11614;SDS011;5863;52.832;4.758;2023-06-22T11:08:48;14.30;;;12.05;;
11614;SDS011;5863;52.832;4.758;2023-06-22T11:11:15;14.30;;;11.13;;
11614;SDS011;5863;52.832;4.758;2023-06-22T11:13:44;13.45;;;11.90;;
11614;SDS011;5863;52.832;4.758;2023-06-22T11:16:11;14.93;;;11.40;;
11614;SDS011;5863;52.832;4.758;2023-06-22T11:18:38;13.07;;;11.68;;
11614;SDS011;5863;52.832;4.758;2023-06-22T11:21:04;13.10;;;11.52;;
11614;SDS011;5863;52.832;4.758;2023-06-22T11:23:31;14.43;;;10.98;;
11614;SDS011;5863;52.832;4.758;2023-06-22T11:25:58;15.82;;;12.30;;
11614;SDS011;5863;52.832;4.758;2023-06-22T11:28:24;13.10;;;11.48;;
11614;SDS011;5863;52.832;4.758;2023-06-22T11:30:52;14.27;;;10.85;;
11614;SDS011;5863;52.832;4.758;2023-06-22T11:33:19;16.08;;;11.02;;
11614;SDS011;5863;52.832;4.758;2023-06-22T11:35:46;13.65;;;11.05;;
11614;SDS011;5863;52.832;4.758;2023-06-22T11:38:13;12.40;;;10.77;;
11614;SDS011;5863;52.832;4.758;2023-06-22T11:40:39;13.45;;;12.02;;
11614;SDS011;5863;52.832;4.758;2023-06-22T11:43:06;13.38;;;10.68;;
11614;SDS011;5863;52.832;4.758;2023-06-22T11:45:33;14.30;;;11.27;;
11614;SDS011;5863;52.832;4.758;2023-06-22T11:48:01;14.20;;;12.65;;
11614;SDS011;5863;52.832;4.758;2023-06-22T11:50:27;11.95;;;10.73;;
11614;SDS011;5863;52.832;4.758;2023-06-22T11:52:55;14.00;;;12.05;;
11614;SDS011;5863;52.832;4.758;2023-06-22T11:55:21;14.50;;;12.40;;
11614;SDS011;5863;52.832;4.758;2023-06-22T11:57:53;14.00;;;11.27;;
11614;SDS011;5863;52.832;4.758;2023-06-22T12:00:21;15.85;;;11.55;;
11614;SDS011;5863;52.832;4.758;2023-06-22T12:02:49;15.35;;;12.18;;
11614;SDS011;5863;52.832;4.758;2023-06-22T12:05:17;15.52;;;12.25;;
11614;SDS011;5863;52.832;4.758;2023-06-22T12:07:45;14.95;;;11.57;;
11614;SDS011;5863;52.832;4.758;2023-06-22T12:10:12;16.25;;;11.90;;
11614;SDS011;5863;52.832;4.758;2023-06-22T12:12:38;12.30;;;10.15;;
11614;SDS011;5863;52.832;4.758;2023-06-22T12:15:05;10.65;;;9.45;;
11614;SDS011;5863;52.832;4.758;2023-06-22T12:17:33;10.25;;;7.72;;
11614;SDS011;5863;52.832;4.758;2023-06-22T12:20:00;9.65;;;7.07;;
11614;SDS011;5863;52.832;4.758;2023-06-22T12:22:31;8.02;;;5.85;;
11614;SDS011;5863;52.832;4.758;2023-06-22T12:24:58;8.48;;;6.75;;
11614;SDS011;5863;52.832;4.758;2023-06-22T12:27:25;8.32;;;6.45;;
11614;SDS011;5863;52.832;4.758;2023-06-22T12:29:51;7.28;;;5.78;;
11614;SDS011;5863;52.832;4.758;2023-06-22T12:32:18;7.38;;;5.40;;
11614;SDS011;5863;52.832;4.758;2023-06-22T12:34:45;9.55;;;6.53;;
11614;SDS011;5863;52.832;4.758;2023-06-22T12:37:12;8.77;;;6.55;;
11614;SDS011;5863;52.832;4.758;2023-06-22T12:39:40;8.52;;;6.55;;
11614;SDS011;5863;52.832;4.758;2023-06-22T12:42:07;8.85;;;5.25;;
11614;SDS011;5863;52.832;4.758;2023-06-22T12:44:34;6.55;;;4.75;;
11614;SDS011;5863;52.832;4.758;2023-06-22T12:47:01;7.88;;;5.53;;
11614;SDS011;5863;52.832;4.758;2023-06-22T12:49:27;7.90;;;5.53;;
11614;SDS011;5863;52.832;4.758;2023-06-22T12:51:54;6.10;;;4.90;;
11614;SDS011;5863;52.832;4.758;2023-06-22T12:54:21;7.90;;;4.88;;
11614;SDS011;5863;52.832;4.758;2023-06-22T12:56:49;6.50;;;3.95;;
11614;SDS011;5863;52.832;4.758;2023-06-22T12:59:21;4.30;;;3.13;;
11614;SDS011;5863;52.832;4.758;2023-06-22T13:01:48;5.22;;;3.90;;
11614;SDS011;5863;52.832;4.758;2023-06-22T13:04:15;4.38;;;3.45;;
11614;SDS011;5863;52.832;4.758;2023-06-22T13:06:43;3.80;;;2.95;;
11614;SDS011;5863;52.832;4.758;2023-06-22T13:09:12;3.95;;;3.50;;
11614;SDS011;5863;52.832;4.758;2023-06-22T13:11:39;3.85;;;3.15;;
11614;SDS011;5863;52.832;4.758;2023-06-22T13:14:07;3.45;;;3.15;;
11614;SDS011;5863;52.832;4.758;2023-06-22T13:16:34;4.75;;;3.20;;
11614;SDS011;5863;52.832;4.758;2023-06-22T13:19:01;4.72;;;3.42;;
11614;SDS011;5863;52.832;4.758;2023-06-22T13:21:28;3.80;;;3.45;;
11614;SDS011;5863;52.832;4.758;2023-06-22T13:23:55;5.18;;;3.78;;
11614;SDS011;5863;52.832;4.758;2023-06-22T13:26:24;5.55;;;4.00;;
11614;SDS011;5863;52.832;4.758;2023-06-22T13:28:50;6.55;;;4.47;;
11614;SDS011;5863;52.832;4.758;2023-06-22T13:31:20;5.80;;;4.28;;
11614;SDS011;5863;52.832;4.758;2023-06-22T13:33:47;5.53;;;4.00;;
11614;SDS011;5863;52.832;4.758;2023-06-22T13:36:17;6.18;;;3.55;;
11614;SDS011;5863;52.832;4.758;2023-06-22T13:38:45;4.68;;;3.17;;
11614;SDS011;5863;52.832;4.758;2023-06-22T13:41:12;3.35;;;2.95;;
11614;SDS011;5863;52.832;4.758;2023-06-22T13:43:39;4.10;;;3.00;;
11614;SDS011;5863;52.832;4.758;2023-06-22T13:46:05;3.28;;;2.97;;
11614;SDS011;5863;52.832;4.758;2023-06-22T13:48:33;2.88;;;2.50;;
11614;SDS011;5863;52.832;4.758;2023-06-22T13:51:00;4.40;;;2.90;;
11614;SDS011;5863;52.832;4.758;2023-06-22T13:53:27;3.13;;;2.83;;
11614;SDS011;5863;52.832;4.758;2023-06-22T13:55:53;3.03;;;2.60;;
11614;SDS011;5863;52.832;4.758;2023-06-22T13:58:23;4.50;;;2.50;;
11614;SDS011;5863;52.832;4.758;2023-06-22T14:00:49;4.30;;;2.53;;
11614;SDS011;5863;52.832;4.758;2023-06-22T14:03:16;3.50;;;2.58;;
11614;SDS011;5863;52.832;4.758;2023-06-22T14:05:44;2.92;;;2.47;;
11614;SDS011;5863;52.832;4.758;2023-06-22T14:08:11;5.88;;;2.72;;
11614;SDS011;5863;52.832;4.758;2023-06-22T14:10:39;3.45;;;2.30;;
11614;SDS011;5863;52.832;4.758;2023-06-22T14:13:06;3.47;;;2.33;;
11614;SDS011;5863;52.832;4.758;2023-06-22T14:15:33;3.38;;;2.50;;
11614;SDS011;5863;52.832;4.758;2023-06-22T14:17:59;3.67;;;2.53;;
11614;SDS011;5863;52.832;4.758;2023-06-22T14:20:26;3.22;;;2.45;;
11614;SDS011;5863;52.832;4.758;2023-06-22T14:22:54;3.85;;;2.60;;
11614;SDS011;5863;52.832;4.758;2023-06-22T14:25:21;4.20;;;2.58;;
11614;SDS011;5863;52.832;4.758;2023-06-22T14:27:47;4.85;;;2.70;;
11614;SDS011;5863;52.832;4.758;2023-06-22T14:30:15;2.80;;;2.60;;
11614;SDS011;5863;52.832;4.758;2023-06-22T14:32:43;3.67;;;2.70;;
11614;SDS011;5863;52.832;4.758;2023-06-22T14:35:10;3.70;;;2.53;;
11614;SDS011;5863;52.832;4.758;2023-06-22T14:37:37;3.25;;;2.63;;
11614;SDS011;5863;52.832;4.758;2023-06-22T14:40:05;6.10;;;2.30;;
11614;SDS011;5863;52.832;4.758;2023-06-22T14:42:32;4.32;;;2.42;;
11614;SDS011;5863;52.832;4.758;2023-06-22T14:44:59;4.13;;;2.47;;